Howland, Ohio
Current Conditions -  °F | °C
As of 5:51 PM on Thursday 27 Nov 2014 (Local Time) from KYNG Reporting Station
Light Snow Light Snow  
Wind Chill: -7°   Ceiling: 4000
Heat Index: -2°   Visibility: 5mi
Dew Point: -5°   Wind: 13mph
Humidity: 78%   Direction: 260°W
Pressure: 30.14"   Gusts: 18mph
Location:  41.234°N, 80.7496°W
Report Text: KYNG 272251Z 26011G16KT 5SM -SN FEW018 SCT023 OVC040 M02/M05 A3014 RMK AO2 SLP221 P0000 T10171050
Loading
Personal Weather Stations






























Interactive Weather Map New forecast layout! Learn more

10-Day Weather Forecast

Advertisements
Track Severe Weather on mobile